Rome, Georgia
Current Conditions -  °F | °C
As of 12:53 PM on Friday 19 Dec 2014 (Local Time) from KRMG Reporting Station
Clear Clear  
Wind Chill:   Ceiling: Unl
Heat Index:   Visibility: 10mi
Dew Point: -1°   Wind: 7mph
Humidity: 54%   Direction: 360°N
Pressure: 30.16"   Gusts: NA
Location:  34.25°N, 85.17°W
Report Text: KRMG 191753Z AUTO 36006KT 10SM CLR 08/M01 A3016 RMK AO2 SLP212 T00831006 10083 20011 58017
Loading
Personal Weather Stations






























Interactive Weather Map New forecast layout! Learn more

10-Day Weather Forecast

Advertisements
Track Severe Weather on mobile